Time;durP1;ratioP1;P1;durP2;ratioP2;P2;SDS_P1;SDS_P2;PMS_P1;PMS_P2;Temp;Humidity;BMP_temperature;BMP_pressure;BME280_temperature;BME280_humidity;BME280_pressure;Samples;Min_cycle;Max_cycle;Signal;HPM_P1;HPM_P2
2023/09/28 00:01:59;;;;;;;13.45;10.90;;;18.10;99.90;;;;;;4938452;28;89764;-31
2023/09/28 00:04:25;;;;;;;11.68;10.63;;;18.10;99.90;;;;;;4939442;28;90462;-32
2023/09/28 00:06:51;;;;;;;11.63;10.55;;;18.00;99.90;;;;;;4938723;28;90000;-32
2023/09/28 00:09:17;;;;;;;12.23;10.93;;;18.00;99.90;;;;;;4939459;28;90121;-31
2023/09/28 00:11:44;;;;;;;12.43;11.10;;;18.00;99.90;;;;;;4938939;28;89366;-32
2023/09/28 00:14:10;;;;;;;11.53;10.53;;;18.10;99.90;;;;;;4939680;28;89786;-35
2023/09/28 00:16:36;;;;;;;11.82;10.68;;;18.00;99.90;;;;;;4939157;28;89722;-30
2023/09/28 00:19:02;;;;;;;10.88;9.77;;;18.00;99.90;;;;;;4939186;28;89291;-33
2023/09/28 00:21:28;;;;;;;9.95;9.05;;;18.10;99.90;;;;;;4939669;28;89419;-31
2023/09/28 00:23:54;;;;;;;11.57;10.43;;;18.10;99.90;;;;;;4939689;28;90888;-33
2023/09/28 00:26:19;;;;;;;11.40;9.93;;;18.10;99.90;;;;;;4938907;28;91164;-32
2023/09/28 00:28:45;;;;;;;11.65;10.38;;;18.10;99.90;;;;;;4939926;28;91627;-31
2023/09/28 00:31:11;;;;;;;11.23;10.23;;;18.10;99.90;;;;;;4940826;28;88749;-33
2023/09/28 00:33:37;;;;;;;9.68;8.65;;;18.10;99.90;;;;;;4942738;28;89003;-30
2023/09/28 00:36:03;;;;;;;14.50;10.40;;;18.10;99.90;;;;;;4942708;28;90444;-36
2023/09/28 00:38:28;;;;;;;10.68;9.55;;;18.10;99.90;;;;;;4942365;28;89721;-33
2023/09/28 00:40:54;;;;;;;14.52;9.02;;;18.20;99.90;;;;;;4942664;28;89123;-35
2023/09/28 00:43:27;;;;;;;10.82;9.70;;;18.20;99.90;;;;;;4943407;28;92893;-33
2023/09/28 00:45:52;;;;;;;10.63;9.55;;;18.30;99.90;;;;;;4942682;28;90105;-33
2023/09/28 00:48:18;;;;;;;12.27;10.05;;;18.30;99.90;;;;;;4942447;28;89796;-39
2023/09/28 00:50:44;;;;;;;11.07;9.52;;;18.30;99.90;;;;;;4942250;28;90166;-32
2023/09/28 00:53:10;;;;;;;10.60;9.50;;;18.20;99.90;;;;;;4942194;28;90610;-35
2023/09/28 00:55:39;;;;;;;10.75;9.70;;;18.30;99.90;;;;;;4942666;28;89419;-32
2023/09/28 00:58:05;;;;;;;10.43;9.45;;;18.30;99.90;;;;;;4943069;28;90192;-31
2023/09/28 01:00:33;;;;;;;10.25;9.25;;;18.30;99.90;;;;;;4942875;28;87479;-36
2023/09/28 01:03:02;;;;;;;12.02;9.60;;;18.20;99.90;;;;;;4942253;28;90995;-33
2023/09/28 01:05:40;;;;;;;11.23;9.63;;;18.30;99.90;;;;;;4942520;28;89742;-31
2023/09/28 01:08:07;;;;;;;10.13;9.23;;;18.30;99.90;;;;;;4942707;28;90076;-33
2023/09/28 01:10:35;;;;;;;10.38;9.45;;;18.20;99.90;;;;;;4942578;28;88761;-31
2023/09/28 01:13:08;;;;;;;10.32;9.40;;;18.30;99.90;;;;;;4942375;28;90725;-36
2023/09/28 01:15:35;;;;;;;9.98;8.98;;;18.20;99.90;;;;;;4942199;28;91073;-35
2023/09/28 01:18:01;;;;;;;9.25;8.55;;;18.20;99.90;;;;;;4942149;28;90083;-31
2023/09/28 01:20:35;;;;;;;10.85;9.68;;;18.20;99.90;;;;;;4943328;28;88033;-31
2023/09/28 01:23:02;;;;;;;10.40;9.43;;;18.20;99.90;;;;;;4941022;28;90725;-35
2023/09/28 01:25:28;;;;;;;10.65;9.65;;;18.20;99.90;;;;;;4942531;28;90150;-31
2023/09/28 01:27:54;;;;;;;10.57;9.40;;;18.20;99.90;;;;;;4941330;28;89635;-36
2023/09/28 01:30:20;;;;;;;10.70;9.68;;;18.10;99.90;;;;;;4942675;28;88662;-32
2023/09/28 01:32:46;;;;;;;11.15;10.25;;;18.10;99.90;;;;;;4941274;28;90112;-38
2023/09/28 01:35:12;;;;;;;10.57;9.00;;;18.10;99.90;;;;;;4941610;28;89734;-31
2023/09/28 01:38:05;;;;;;;11.18;10.07;;;18.10;99.90;;;;;;4941823;28;89936;-34
2023/09/28 01:40:31;;;;;;;10.55;9.65;;;18.10;99.90;;;;;;4941198;28;89206;-36
2023/09/28 01:42:56;;;;;;;11.30;9.50;;;18.00;99.90;;;;;;4941646;28;90724;-35
2023/09/28 01:45:22;;;;;;;10.45;9.35;;;18.00;99.90;;;;;;4942063;28;91027;-34
2023/09/28 01:47:48;;;;;;;9.85;8.85;;;18.00;99.90;;;;;;4941964;28;90501;-34
2023/09/28 01:50:14;;;;;;;9.05;8.15;;;18.10;99.90;;;;;;4941427;28;89039;-34
2023/09/28 01:52:39;;;;;;;11.27;9.50;;;18.00;99.90;;;;;;4942272;28;90572;-30
2023/09/28 01:55:05;;;;;;;10.68;9.60;;;18.00;99.90;;;;;;4941602;28;90141;-34
2023/09/28 01:57:31;;;;;;;9.95;8.40;;;18.00;99.90;;;;;;4942309;28;89319;-32
2023/09/28 01:59:59;;;;;;;12.45;10.35;;;18.00;99.90;;;;;;4941359;28;89196;-34
2023/09/28 02:02:26;;;;;;;9.38;8.60;;;18.00;99.90;;;;;;4941095;28;90816;-37
2023/09/28 02:04:51;;;;;;;10.18;8.50;;;18.00;99.90;;;;;;4940914;28;91506;-34
2023/09/28 02:07:18;;;;;;;10.25;9.23;;;18.00;99.90;;;;;;4942036;28;90229;-31
2023/09/28 02:09:44;;;;;;;9.45;8.57;;;18.00;99.90;;;;;;4941189;28;87965;-34
2023/09/28 02:12:10;;;;;;;8.35;7.63;;;18.00;99.90;;;;;;4941560;28;90125;-31
2023/09/28 02:14:36;;;;;;;9.93;8.95;;;18.00;99.90;;;;;;4941496;28;91149;-31
2023/09/28 02:17:02;;;;;;;9.73;8.85;;;17.90;99.90;;;;;;4941460;28;90124;-34
2023/09/28 02:19:28;;;;;;;10.27;7.85;;;17.90;99.90;;;;;;4941578;28;88697;-31
2023/09/28 02:21:53;;;;;;;8.95;7.70;;;17.90;99.90;;;;;;4941660;28;90357;-35
2023/09/28 02:24:19;;;;;;;9.27;8.38;;;17.90;99.90;;;;;;4940929;28;90751;-34
2023/09/28 02:26:45;;;;;;;9.57;8.57;;;17.90;99.90;;;;;;4941593;28;89814;-31
2023/09/28 02:29:12;;;;;;;8.77;7.97;;;17.90;99.90;;;;;;4940575;28;87960;-38
2023/09/28 02:31:44;;;;;;;9.23;8.43;;;17.90;99.90;;;;;;4941714;28;91034;-35
2023/09/28 02:34:09;;;;;;;13.10;8.95;;;17.90;99.90;;;;;;4941591;28;89894;-30
2023/09/28 02:36:35;;;;;;;8.82;8.02;;;17.90;99.90;;;;;;4940617;28;88883;-32
2023/09/28 02:39:12;;;;;;;8.23;7.22;;;17.90;99.90;;;;;;4940865;28;87668;-38
2023/09/28 02:41:38;;;;;;;10.10;9.07;;;17.90;99.90;;;;;;4941219;28;90079;-32
2023/09/28 02:44:04;;;;;;;11.40;8.88;;;17.90;99.90;;;;;;4941448;28;89339;-31
2023/09/28 02:46:31;;;;;;;7.38;6.68;;;17.90;99.90;;;;;;4940476;28;89930;-35
2023/09/28 02:48:57;;;;;;;10.07;7.90;;;17.90;99.90;;;;;;4941755;28;89574;-32
2023/09/28 02:51:23;;;;;;;9.80;8.27;;;17.90;99.90;;;;;;4940682;28;90173;-33
2023/09/28 02:53:49;;;;;;;10.15;8.10;;;17.90;99.90;;;;;;4939634;28;91174;-31
2023/09/28 02:56:14;;;;;;;10.45;8.32;;;17.80;99.90;;;;;;4940279;28;91044;-37
2023/09/28 02:58:40;;;;;;;12.48;9.00;;;17.80;99.90;;;;;;4941330;28;90071;-33
2023/09/28 03:01:08;;;;;;;11.02;8.32;;;17.80;99.90;;;;;;4939508;28;90647;-33
2023/09/28 03:03:33;;;;;;;11.27;8.97;;;17.80;99.90;;;;;;4939289;28;90243;-32
2023/09/28 03:05:59;;;;;;;11.23;9.98;;;17.70;99.90;;;;;;4940529;28;89765;-34
2023/09/28 03:08:25;;;;;;;9.60;8.80;;;17.70;99.90;;;;;;4940426;28;90215;-32
2023/09/28 03:10:53;;;;;;;10.07;8.32;;;17.70;99.90;;;;;;4940421;28;90690;-36
2023/09/28 03:13:19;;;;;;;9.82;8.90;;;17.60;99.90;;;;;;4940062;28;89790;-33
2023/09/28 03:15:45;;;;;;;9.40;8.43;;;17.60;99.90;;;;;;4940943;28;90184;-36
2023/09/28 03:18:12;;;;;;;10.98;9.23;;;17.60;99.90;;;;;;4940192;28;89302;-33
2023/09/28 03:20:38;;;;;;;15.02;10.48;;;17.60;99.90;;;;;;4940601;28;90364;-32
2023/09/28 03:23:04;;;;;;;12.23;9.98;;;17.60;99.90;;;;;;4938903;28;90099;-31
2023/09/28 03:25:30;;;;;;;9.70;8.80;;;17.50;99.90;;;;;;4940240;28;90091;-35
2023/09/28 03:27:56;;;;;;;15.63;9.73;;;17.60;99.90;;;;;;4940285;28;89058;-32
2023/09/28 03:30:24;;;;;;;9.93;8.23;;;17.50;99.90;;;;;;4940666;28;90697;-36
2023/09/28 03:32:50;;;;;;;9.77;8.52;;;17.50;99.90;;;;;;4939511;28;89594;-31
2023/09/28 03:35:18;;;;;;;9.95;8.65;;;17.50;99.90;;;;;;4940729;28;88702;-35
2023/09/28 03:37:45;;;;;;;9.93;8.93;;;17.40;99.90;;;;;;4938856;28;89026;-32
2023/09/28 03:40:12;;;;;;;10.77;9.60;;;17.40;99.90;;;;;;4940159;28;90456;-38
2023/09/28 03:42:43;;;;;;;9.52;8.63;;;17.40;99.90;;;;;;4939619;28;90321;-34
2023/09/28 03:45:10;;;;;;;10.80;9.02;;;17.40;99.90;;;;;;4940123;28;91000;-32
2023/09/28 03:47:39;;;;;;;9.98;9.07;;;17.30;99.90;;;;;;4938079;28;89445;-31
2023/09/28 03:50:07;;;;;;;13.07;9.98;;;17.30;99.90;;;;;;4939833;28;90335;-32
2023/09/28 03:52:34;;;;;;;11.47;10.30;;;17.30;99.90;;;;;;4939590;28;90360;-32
2023/09/28 03:55:00;;;;;;;10.55;9.18;;;17.30;99.90;;;;;;4938963;28;90525;-34
2023/09/28 03:57:25;;;;;;;11.15;9.05;;;17.30;99.90;;;;;;4940009;28;89275;-35
2023/09/28 03:59:51;;;;;;;10.13;8.88;;;17.20;99.90;;;;;;4939644;28;90915;-31
2023/09/28 04:02:17;;;;;;;9.63;8.25;;;17.20;99.90;;;;;;4939765;28;89286;-32
2023/09/28 04:04:42;;;;;;;10.68;9.43;;;17.10;99.90;;;;;;4939087;28;89739;-35
2023/09/28 04:07:08;;;;;;;9.77;8.77;;;17.10;99.90;;;;;;4939732;28;90115;-33
2023/09/28 04:09:34;;;;;;;9.38;8.55;;;17.10;99.90;;;;;;4939480;28;90813;-34
2023/09/28 04:12:00;;;;;;;10.25;9.15;;;17.00;99.90;;;;;;4939641;28;90140;-32
2023/09/28 04:14:27;;;;;;;10.20;9.30;;;17.00;99.90;;;;;;4938359;28;90957;-38
2023/09/28 04:16:54;;;;;;;9.90;8.90;;;17.00;99.90;;;;;;4940197;28;88972;-34
2023/09/28 04:19:19;;;;;;;10.10;9.00;;;17.00;99.90;;;;;;4939582;28;90828;-37
2023/09/28 04:21:45;;;;;;;10.85;9.98;;;16.90;99.90;;;;;;4939819;28;90022;-32
2023/09/28 04:24:11;;;;;;;11.70;9.13;;;16.90;99.90;;;;;;4938062;28;88318;-30
2023/09/28 04:26:37;;;;;;;11.35;10.07;;;16.80;99.90;;;;;;4939770;28;89713;-32
2023/09/28 04:29:03;;;;;;;13.50;10.80;;;16.90;99.90;;;;;;4938740;28;90525;-33
2023/09/28 04:31:29;;;;;;;10.40;9.50;;;16.80;99.90;;;;;;4938000;28;90527;-31
2023/09/28 04:33:57;;;;;;;14.23;10.15;;;16.80;99.90;;;;;;4939583;28;88901;-37
2023/09/28 04:36:23;;;;;;;9.40;8.63;;;16.80;99.90;;;;;;4939123;28;88855;-32
2023/09/28 04:38:50;;;;;;;11.00;10.00;;;16.70;99.90;;;;;;4939104;28;90542;-32
2023/09/28 04:41:17;;;;;;;11.30;10.18;;;16.70;99.90;;;;;;4938510;28;89209;-36
2023/09/28 04:43:43;;;;;;;10.77;9.40;;;16.70;99.90;;;;;;4938289;28;90322;-35
2023/09/28 04:46:09;;;;;;;11.30;10.18;;;16.70;99.90;;;;;;4939726;28;87586;-35
2023/09/28 04:48:35;;;;;;;10.75;9.73;;;16.70;99.90;;;;;;4936806;28;90899;-37
2023/09/28 04:51:00;;;;;;;10.48;9.43;;;16.70;99.90;;;;;;4939411;28;89534;-33
2023/09/28 04:53:26;;;;;;;10.25;9.23;;;16.70;99.90;;;;;;4938640;28;90134;-32
2023/09/28 04:55:52;;;;;;;10.88;9.10;;;16.70;99.90;;;;;;4939473;28;90015;-35
2023/09/28 04:58:18;;;;;;;10.82;9.30;;;16.70;99.90;;;;;;4939135;28;89631;-32
2023/09/28 05:00:44;;;;;;;13.00;10.68;;;16.70;99.90;;;;;;4939374;28;88594;-30
2023/09/28 05:03:11;;;;;;;10.77;9.27;;;16.70;99.90;;;;;;4936481;28;89683;-35
2023/09/28 05:05:37;;;;;;;15.68;10.80;;;16.70;99.90;;;;;;4938356;28;89197;-30
2023/09/28 05:08:03;;;;;;;10.80;8.93;;;16.60;99.90;;;;;;4937658;28;90170;-35
2023/09/28 05:10:28;;;;;;;15.73;11.75;;;16.70;99.90;;;;;;4939133;28;89712;-31
2023/09/28 05:12:54;;;;;;;10.60;9.60;;;16.60;99.90;;;;;;4936752;28;90537;-37
2023/09/28 05:15:20;;;;;;;11.38;9.80;;;16.60;99.90;;;;;;4939410;28;88399;-35
2023/09/28 05:17:47;;;;;;;11.00;9.90;;;16.60;99.90;;;;;;4941395;28;90227;-36
2023/09/28 05:20:12;;;;;;;10.98;9.98;;;16.60;99.90;;;;;;4941928;28;90553;-31
2023/09/28 05:22:38;;;;;;;12.55;11.25;;;16.60;99.90;;;;;;4941371;28;90202;-32
2023/09/28 05:25:05;;;;;;;11.75;10.63;;;16.60;99.90;;;;;;4942109;28;89056;-33
2023/09/28 05:27:31;;;;;;;11.40;10.30;;;16.60;99.90;;;;;;4941590;28;88826;-35
2023/09/28 05:29:56;;;;;;;10.35;9.35;;;16.60;99.90;;;;;;4938165;28;88813;-34
2023/09/28 05:32:22;;;;;;;12.90;11.50;;;16.60;99.90;;;;;;4939507;28;89320;-38
2023/09/28 05:34:48;;;;;;;11.70;10.57;;;16.50;99.90;;;;;;4939914;28;88567;-36
2023/09/28 05:37:13;;;;;;;14.60;10.48;;;16.50;99.90;;;;;;4976338;22;89880;-34
2023/09/28 05:39:39;;;;;;;10.73;9.73;;;16.50;99.90;;;;;;4978081;28;90834;-32
2023/09/28 05:42:05;;;;;;;14.70;10.88;;;16.50;99.90;;;;;;4979345;28;90126;-32
2023/09/28 05:44:31;;;;;;;12.40;10.05;;;16.50;99.90;;;;;;4969708;28;89655;-33
2023/09/28 05:46:57;;;;;;;12.70;10.70;;;16.50;99.90;;;;;;4967635;28;90151;-36
2023/09/28 05:49:23;;;;;;;11.95;10.70;;;16.50;99.90;;;;;;4968868;28;89645;-37
2023/09/28 05:51:49;;;;;;;13.13;10.68;;;16.50;99.90;;;;;;4977822;28;89373;-34
2023/09/28 05:54:14;;;;;;;12.20;10.77;;;16.50;99.90;;;;;;4978499;28;88784;-32
2023/09/28 05:56:40;;;;;;;10.02;8.98;;;16.50;99.90;;;;;;4978600;28;90222;-31
2023/09/28 05:59:06;;;;;;;10.32;9.27;;;16.50;99.90;;;;;;4977040;28;89628;-35
2023/09/28 06:01:32;;;;;;;12.48;10.88;;;16.50;99.90;;;;;;4979529;28;90058;-33
2023/09/28 06:03:58;;;;;;;10.45;9.35;;;16.50;99.90;;;;;;4978026;28;88328;-36
2023/09/28 06:06:24;;;;;;;12.40;10.32;;;16.50;99.90;;;;;;4978616;28;90359;-33
2023/09/28 06:08:52;;;;;;;13.73;9.23;;;16.50;99.90;;;;;;4978217;28;90528;-33
2023/09/28 06:11:19;;;;;;;10.48;9.50;;;16.50;99.90;;;;;;4978986;28;90951;-31
2023/09/28 06:13:45;;;;;;;10.60;9.50;;;16.50;99.90;;;;;;4978732;28;89058;-34
2023/09/28 06:16:14;;;;;;;12.23;9.55;;;16.50;99.90;;;;;;4978145;28;90112;-35
2023/09/28 06:18:41;;;;;;;10.50;9.50;;;16.50;99.90;;;;;;4978853;28;89644;-37
2023/09/28 06:21:07;;;;;;;22.40;10.10;;;16.50;99.90;;;;;;4977572;28;87965;-35
2023/09/28 06:23:34;;;;;;;10.38;9.23;;;16.50;99.90;;;;;;4978320;28;90132;-32
2023/09/28 06:26:00;;;;;;;10.48;9.35;;;16.50;99.90;;;;;;4978374;28;91941;-34
2023/09/28 06:28:26;;;;;;;12.02;8.60;;;16.50;99.90;;;;;;4976871;28;90152;-38
2023/09/28 06:30:55;;;;;;;9.15;7.88;;;16.50;99.90;;;;;;4978434;28;89342;-34
2023/09/28 06:33:22;;;;;;;16.50;9.73;;;16.50;99.90;;;;;;4977506;28;90562;-32
2023/09/28 06:35:48;;;;;;;11.07;9.35;;;16.60;99.90;;;;;;4978251;28;90503;-33
2023/09/28 06:38:14;;;;;;;11.48;9.07;;;16.60;99.90;;;;;;4976263;28;90647;-32
2023/09/28 06:40:42;;;;;;;10.93;8.95;;;16.60;99.90;;;;;;4978628;28;90431;-31
2023/09/28 06:43:08;;;;;;;10.60;8.85;;;16.60;99.90;;;;;;4977620;28;88911;-34
2023/09/28 06:45:34;;;;;;;11.98;8.93;;;16.60;99.90;;;;;;4979031;28;90290;-33
2023/09/28 06:48:00;;;;;;;15.88;8.25;;;16.60;99.90;;;;;;4977928;28;89613;-32
2023/09/28 06:50:26;;;;;;;13.98;9.52;;;16.70;99.90;;;;;;4978510;28;88464;-37
2023/09/28 06:52:51;;;;;;;14.45;8.20;;;16.70;99.90;;;;;;4978082;28;88885;-33
2023/09/28 06:55:17;;;;;;;13.45;9.13;;;16.70;99.90;;;;;;4978667;28;89826;-37
2023/09/28 06:57:43;;;;;;;9.05;8.00;;;16.80;99.90;;;;;;4976523;28;89626;-33
2023/09/28 07:00:09;;;;;;;10.55;9.27;;;16.80;99.90;;;;;;4977296;28;91109;-31
2023/09/28 07:02:35;;;;;;;17.85;9.65;;;16.80;99.90;;;;;;4977704;28;88813;-32
2023/09/28 07:05:03;;;;;;;10.85;6.82;;;16.90;99.90;;;;;;4977908;28;90233;-32
2023/09/28 07:07:30;;;;;;;10.67;7.53;;;17.00;99.90;;;;;;4977511;28;91476;-32
2023/09/28 07:09:56;;;;;;;16.48;7.95;;;17.10;99.90;;;;;;4977617;28;89708;-37
2023/09/28 07:12:22;;;;;;;10.75;7.80;;;17.20;99.90;;;;;;4977838;28;89683;-36
2023/09/28 07:14:48;;;;;;;14.57;8.65;;;17.30;99.90;;;;;;4978726;28;90132;-40
2023/09/28 07:17:14;;;;;;;10.23;8.00;;;17.30;99.90;;;;;;4978224;28;90354;-36
2023/09/28 07:19:39;;;;;;;11.60;7.18;;;17.40;99.90;;;;;;4978404;28;89310;-35
2023/09/28 07:22:05;;;;;;;15.40;8.13;;;17.40;99.90;;;;;;4977270;28;90498;-37
2023/09/28 07:24:34;;;;;;;16.02;6.88;;;17.40;99.90;;;;;;4978049;28;90819;-33
2023/09/28 07:27:00;;;;;;;13.27;6.80;;;17.50;99.90;;;;;;4976285;28;89704;-33
2023/09/28 07:29:25;;;;;;;15.18;7.28;;;17.50;99.90;;;;;;4977413;28;89526;-33
2023/09/28 07:31:51;;;;;;;12.13;7.50;;;17.60;99.90;;;;;;4978672;28;88010;-32
2023/09/28 07:34:17;;;;;;;15.68;7.80;;;17.70;99.90;;;;;;4977944;28;91355;-32
2023/09/28 07:36:42;;;;;;;19.52;7.32;;;17.70;99.90;;;;;;4977026;28;89978;-37
2023/09/28 07:39:08;;;;;;;16.92;6.10;;;17.70;99.90;;;;;;4977373;28;89679;-32
2023/09/28 07:41:33;;;;;;;11.38;7.13;;;17.80;99.90;;;;;;4966819;28;88510;-31
2023/09/28 07:43:59;;;;;;;15.35;6.32;;;17.90;99.90;;;;;;4962479;28;90933;-31
2023/09/28 07:46:25;;;;;;;12.52;5.85;;;18.00;99.90;;;;;;4957630;28;90469;-36
2023/09/28 07:48:50;;;;;;;18.60;7.78;;;18.00;99.90;;;;;;4957914;28;90689;-36
2023/09/28 07:51:17;;;;;;;16.33;6.50;;;18.10;99.90;;;;;;4957485;28;88487;-34
2023/09/28 07:53:43;;;;;;;13.52;6.65;;;18.20;99.90;;;;;;4957533;28;90437;-33
2023/09/28 07:56:09;;;;;;;18.67;5.60;;;18.30;99.90;;;;;;4957451;28;90539;-32
2023/09/28 07:58:35;;;;;;;18.40;6.63;;;18.30;99.90;;;;;;4957238;28;88629;-35
2023/09/28 08:01:01;;;;;;;18.88;7.40;;;18.40;99.90;;;;;;4957879;28;88476;-35
2023/09/28 08:03:27;;;;;;;20.55;6.22;;;18.50;99.90;;;;;;4957844;28;90314;-38
2023/09/28 08:05:54;;;;;;;15.23;6.53;;;18.50;99.90;;;;;;4956782;28;89883;-37
2023/09/28 08:08:20;;;;;;;14.32;5.32;;;18.70;99.90;;;;;;4958141;28;88488;-34
2023/09/28 08:10:47;;;;;;;15.60;5.35;;;18.70;99.90;;;;;;4957273;28;90571;-34
2023/09/28 08:13:13;;;;;;;30.85;6.93;;;18.80;99.90;;;;;;4956398;28;89800;-32
2023/09/28 08:15:38;;;;;;;18.33;5.85;;;19.00;99.90;;;;;;4957960;28;88666;-35
2023/09/28 08:18:04;;;;;;;15.27;5.93;;;19.00;99.90;;;;;;4957497;28;89016;-33
2023/09/28 08:20:33;;;;;;;21.55;5.93;;;19.00;99.90;;;;;;4956923;28;88823;-32
2023/09/28 08:22:59;;;;;;;11.82;5.43;;;19.00;99.90;;;;;;4957167;28;89587;-37
2023/09/28 08:25:24;;;;;;;11.52;5.00;;;19.20;99.90;;;;;;4957112;28;89663;-36
2023/09/28 08:27:50;;;;;;;13.23;5.03;;;19.30;99.90;;;;;;4957556;28;89958;-36
2023/09/28 08:30:16;;;;;;;19.80;5.80;;;19.30;99.90;;;;;;4956939;28;89286;-31
2023/09/28 08:32:41;;;;;;;16.60;6.47;;;19.20;99.90;;;;;;4957389;28;90138;-33
2023/09/28 08:35:10;;;;;;;13.57;5.72;;;19.20;99.90;;;;;;4955500;28;90423;-37
2023/09/28 08:37:36;;;;;;;18.23;6.40;;;19.10;99.90;;;;;;4956959;28;90552;-35
2023/09/28 08:40:02;;;;;;;14.75;5.32;;;19.10;99.90;;;;;;4957835;28;90165;-33
2023/09/28 08:42:31;;;;;;;16.80;5.97;;;19.10;99.90;;;;;;4958762;28;89862;-31
2023/09/28 08:45:01;;;;;;;16.38;5.72;;;19.10;99.90;;;;;;4959319;28;90080;-33
2023/09/28 08:47:33;;;;;;;14.13;5.63;;;19.10;99.90;;;;;;4959580;28;89983;-34
2023/09/28 08:49:59;;;;;;;16.13;5.65;;;19.10;99.90;;;;;;4959479;28;89596;-33
2023/09/28 08:52:27;;;;;;;22.45;6.22;;;19.20;99.90;;;;;;4961489;28;89065;-34
2023/09/28 08:54:53;;;;;;;17.58;6.68;;;19.20;99.90;;;;;;4962959;28;89234;-33
2023/09/28 08:57:19;;;;;;;18.05;5.60;;;19.20;99.90;;;;;;4962231;28;89436;-34
2023/09/28 08:59:46;;;;;;;14.20;5.10;;;19.30;99.90;;;;;;4962613;28;89384;-34
2023/09/28 09:02:13;;;;;;;15.07;4.93;;;19.30;99.90;;;;;;4976050;28;89711;-36
2023/09/28 09:04:38;;;;;;;17.15;6.53;;;19.20;99.90;;;;;;4981637;28;89151;-36
2023/09/28 09:07:04;;;;;;;17.25;5.40;;;19.30;99.90;;;;;;4978829;28;90132;-32
2023/09/28 09:09:33;;;;;;;13.70;5.40;;;19.40;99.90;;;;;;4981397;28;89980;-33
2023/09/28 09:12:04;;;;;;;16.27;6.43;;;19.40;99.90;;;;;;4981479;28;90286;-35
2023/09/28 09:14:30;;;;;;;16.65;4.90;;;19.30;99.90;;;;;;4979592;28;90316;-31
2023/09/28 09:16:55;;;;;;;8.50;5.00;;;19.30;99.90;;;;;;4981059;28;89827;-35
2023/09/28 09:19:21;;;;;;;14.13;5.72;;;19.40;99.90;;;;;;4982400;28;88057;-33
2023/09/28 09:21:47;;;;;;;15.80;7.03;;;19.30;99.90;;;;;;4981553;28;89146;-37
2023/09/28 09:24:14;;;;;;;21.30;6.32;;;19.30;99.90;;;;;;4981191;28;91021;-34
2023/09/28 09:26:40;;;;;;;9.02;5.82;;;19.30;99.90;;;;;;4981463;28;89183;-37
2023/09/28 09:29:07;;;;;;;16.42;5.45;;;19.30;99.90;;;;;;4980730;28;89091;-34
2023/09/28 09:31:36;;;;;;;15.73;5.32;;;19.30;99.90;;;;;;4981789;28;90341;-32
2023/09/28 09:34:04;;;;;;;18.52;6.00;;;19.30;99.90;;;;;;4981786;28;89994;-39
2023/09/28 09:36:29;;;;;;;13.02;4.75;;;19.40;99.90;;;;;;4981743;28;89705;-32
2023/09/28 09:38:56;;;;;;;21.27;6.95;;;19.40;99.90;;;;;;4980906;28;89349;-32
2023/09/28 09:41:22;;;;;;;18.27;6.60;;;19.40;99.90;;;;;;4982472;28;89919;-33
2023/09/28 09:43:49;;;;;;;17.30;5.82;;;19.40;99.90;;;;;;4980832;28;89686;-34
2023/09/28 09:46:15;;;;;;;10.57;4.85;;;19.40;99.90;;;;;;4981861;28;89518;-36
2023/09/28 09:48:44;;;;;;;21.42;6.80;;;19.50;99.90;;;;;;4981527;28;90068;-33
2023/09/28 09:51:14;;;;;;;19.27;6.20;;;19.50;99.90;;;;;;4980926;28;90250;-33
2023/09/28 09:53:42;;;;;;;15.40;5.95;;;19.40;99.90;;;;;;4981701;28;90352;-35
2023/09/28 09:56:09;;;;;;;20.75;6.97;;;19.30;99.90;;;;;;4981419;28;89733;-33
2023/09/28 09:58:41;;;;;;;16.55;5.57;;;19.30;99.90;;;;;;4980302;28;88638;-35
2023/09/28 10:01:14;;;;;;;25.27;7.22;;;19.30;99.90;;;;;;4981083;28;90196;-36
2023/09/28 10:03:46;;;;;;;19.10;5.72;;;19.30;99.90;;;;;;4981035;28;91189;-33
2023/09/28 10:06:15;;;;;;;21.05;5.55;;;19.40;99.90;;;;;;4980553;28;89873;-33
2023/09/28 10:08:41;;;;;;;17.20;5.72;;;19.40;99.90;;;;;;4981593;28;88916;-32
2023/09/28 10:11:08;;;;;;;20.15;6.07;;;19.30;99.90;;;;;;4980957;28;89792;-33
2023/09/28 10:13:35;;;;;;;15.07;5.65;;;19.30;99.90;;;;;;4980672;28;91272;-31
2023/09/28 10:16:02;;;;;;;20.35;7.40;;;19.50;99.90;;;;;;4979486;28;91254;-35
2023/09/28 10:18:30;;;;;;;12.82;5.30;;;19.60;99.90;;;;;;4981858;28;89582;-33
2023/09/28 10:21:00;;;;;;;11.23;4.90;;;19.80;99.90;;;;;;4981390;28;92326;-34
2023/09/28 10:23:26;;;;;;;16.90;4.75;;;20.00;99.90;;;;;;4980981;28;89899;-33
2023/09/28 10:26:03;;;;;;;15.55;5.22;;;20.00;99.90;;;;;;4980789;28;89521;-35
2023/09/28 10:28:29;;;;;;;14.82;5.97;;;20.00;99.90;;;;;;4981413;28;89021;-34
2023/09/28 10:31:02;;;;;;;27.63;5.80;;;19.80;99.90;;;;;;4980870;28;90131;-36
2023/09/28 10:33:29;;;;;;;12.55;6.05;;;19.70;99.90;;;;;;4980494;28;89095;-32
2023/09/28 10:36:11;;;;;;;10.85;4.80;;;19.70;99.90;;;;;;4979004;28;89432;-34
2023/09/28 10:38:38;;;;;;;12.57;3.85;;;19.80;99.90;;;;;;4980427;28;90216;-36
2023/09/28 10:41:07;;;;;;;13.80;5.20;;;19.70;99.90;;;;;;4980163;28;91877;-32
2023/09/28 10:43:40;;;;;;;17.08;4.82;;;19.80;99.90;;;;;;4987777;28;89495;-36
2023/09/28 10:46:07;;;;;;;18.58;4.40;;;19.80;99.90;;;;;;4989036;28;87840;-35
2023/09/28 10:48:44;;;;;;;15.30;4.80;;;19.90;99.90;;;;;;5000724;28;88208;-32
2023/09/28 10:51:16;;;;;;;14.15;4.88;;;19.90;99.90;;;;;;5000161;28;90266;-35
2023/09/28 10:53:43;;;;;;;21.88;5.22;;;20.00;99.90;;;;;;5000886;28;88440;-35
2023/09/28 10:56:10;;;;;;;18.15;5.30;;;20.00;99.90;;;;;;5001569;28;89335;-32
2023/09/28 10:58:37;;;;;;;15.65;5.78;;;20.00;99.90;;;;;;5000485;28;89434;-34
2023/09/28 11:01:06;;;;;;;19.85;5.43;;;20.00;99.90;;;;;;4999760;28;90521;-35
2023/09/28 11:03:36;;;;;;;20.45;4.88;;;19.90;99.90;;;;;;4999321;28;91222;-32
2023/09/28 11:06:03;;;;;;;13.65;4.85;;;19.80;99.90;;;;;;5000781;28;90103;-35
2023/09/28 11:08:31;;;;;;;10.07;4.82;;;19.80;99.90;;;;;;5000057;28;89695;-35
2023/09/28 11:11:01;;;;;;;19.80;5.80;;;19.70;99.90;;;;;;5000783;28;90893;-34
2023/09/28 11:13:30;;;;;;;13.80;4.93;;;19.80;99.90;;;;;;4999940;28;90193;-37
2023/09/28 11:15:57;;;;;;;17.42;4.47;;;19.90;99.90;;;;;;4981420;28;90043;-33
2023/09/28 11:18:25;;;;;;;23.60;5.75;;;19.90;99.90;;;;;;4977575;28;88644;-34
2023/09/28 11:20:51;;;;;;;15.93;6.13;;;20.00;99.90;;;;;;4978505;28;90151;-34
2023/09/28 11:23:17;;;;;;;13.75;6.28;;;19.80;99.90;;;;;;4976847;28;90196;-36
2023/09/28 11:25:43;;;;;;;10.20;4.18;;;19.90;99.90;;;;;;4978491;28;89806;-34
2023/09/28 11:28:10;;;;;;;15.63;5.70;;;20.00;99.90;;;;;;4976982;28;89914;-35
2023/09/28 11:30:39;;;;;;;19.27;4.75;;;20.10;99.90;;;;;;4978215;28;90202;-32
2023/09/28 11:33:05;;;;;;;21.00;4.75;;;20.00;99.90;;;;;;4978189;28;89611;-35
2023/09/28 11:35:32;;;;;;;13.18;5.18;;;20.10;99.90;;;;;;4978183;28;89986;-33
2023/09/28 11:37:59;;;;;;;8.43;3.67;;;20.10;99.90;;;;;;4976522;28;88535;-33
2023/09/28 11:40:25;;;;;;;16.30;5.10;;;20.20;99.90;;;;;;4977784;28;89347;-36
2023/09/28 11:42:53;;;;;;;12.77;4.28;;;20.30;99.90;;;;;;4977979;28;89862;-36
2023/09/28 11:45:25;;;;;;;;;;;20.30;99.90;;;;;;4971597;28;89686;-35
2023/09/28 11:47:50;;;;;;;11.75;4.75;;;20.20;99.90;;;;;;4975052;28;88636;-35
2023/09/28 11:50:17;;;;;;;16.98;5.05;;;20.30;99.90;;;;;;4957673;28;89851;-34
2023/09/28 11:52:43;;;;;;;14.73;4.65;;;20.30;99.90;;;;;;4957730;28;90356;-34
2023/09/28 11:55:14;;;;;;;20.40;6.57;;;20.30;99.90;;;;;;4957118;28;90414;-37
2023/09/28 11:57:43;;;;;;;10.23;4.28;;;20.40;99.90;;;;;;4958731;28;89002;-37
2023/09/28 12:00:18;;;;;;;13.45;4.90;;;20.40;99.90;;;;;;4956883;28;88967;-38
2023/09/28 12:02:46;;;;;;;15.27;4.88;;;20.30;99.90;;;;;;4957862;28;89388;-34
2023/09/28 12:05:13;;;;;;;21.05;5.10;;;20.30;99.90;;;;;;4957361;28;89327;-35
2023/09/28 12:07:42;;;;;;;19.85;4.95;;;20.50;99.90;;;;;;4960745;28;89424;-36
2023/09/28 12:10:11;;;;;;;22.90;4.80;;;20.40;99.90;;;;;;4975686;28;89924;-34
2023/09/28 12:12:38;;;;;;;13.85;4.38;;;20.60;99.90;;;;;;4976412;28;89048;-34
2023/09/28 12:15:10;;;;;;;13.80;5.00;;;20.70;99.90;;;;;;4976349;28;89596;-33
2023/09/28 12:17:39;;;;;;;22.10;6.53;;;20.80;99.90;;;;;;4977065;28;89447;-33
2023/09/28 12:20:07;;;;;;;21.92;5.65;;;20.70;99.90;;;;;;4975984;28;90270;-37
2023/09/28 12:22:33;;;;;;;18.55;5.78;;;20.70;99.90;;;;;;4976429;28;88955;-34
2023/09/28 12:24:59;;;;;;;15.35;4.88;;;20.70;99.90;;;;;;4976028;28;89146;-37
2023/09/28 12:27:25;;;;;;;14.13;5.47;;;20.90;99.90;;;;;;4979985;28;89082;-33
2023/09/28 12:29:51;;;;;;;14.27;4.40;;;21.00;99.90;;;;;;4979686;28;90260;-37
2023/09/28 12:32:16;;;;;;;12.77;4.53;;;21.10;99.90;;;;;;4979923;28;90061;-33
2023/09/28 12:34:42;;;;;;;24.67;5.60;;;21.10;99.90;;;;;;4980098;28;89666;-36
2023/09/28 12:37:09;;;;;;;21.52;5.90;;;20.90;99.90;;;;;;4979783;28;88741;-32